sensor_id;sensor_type;location;lat;lon;timestamp;temperature;humidity
78779;DHT22;68121;52.404;5.318;2023-03-01T00:02:25;2.30;64.50
78779;DHT22;68121;52.404;5.318;2023-03-01T00:04:51;2.30;64.50
78779;DHT22;68121;52.404;5.318;2023-03-01T00:07:17;2.20;64.50
78779;DHT22;68121;52.404;5.318;2023-03-01T00:09:43;2.30;64.50
78779;DHT22;68121;52.404;5.318;2023-03-01T00:12:11;2.30;64.50
78779;DHT22;68121;52.404;5.318;2023-03-01T00:14:37;2.30;64.50
78779;DHT22;68121;52.404;5.318;2023-03-01T00:17:04;2.20;64.60
78779;DHT22;68121;52.404;5.318;2023-03-01T00:19:30;2.30;64.60
78779;DHT22;68121;52.404;5.318;2023-03-01T00:21:56;2.30;64.60
78779;DHT22;68121;52.404;5.318;2023-03-01T00:24:22;2.20;64.60
78779;DHT22;68121;52.404;5.318;2023-03-01T00:26:48;2.30;64.60
78779;DHT22;68121;52.404;5.318;2023-03-01T00:29:14;2.20;64.60
78779;DHT22;68121;52.404;5.318;2023-03-01T00:31:40;2.30;64.60
78779;DHT22;68121;52.404;5.318;2023-03-01T00:34:06;2.20;64.60
78779;DHT22;68121;52.404;5.318;2023-03-01T00:36:35;2.20;64.50
78779;DHT22;68121;52.404;5.318;2023-03-01T00:39:03;2.20;64.50
78779;DHT22;68121;52.404;5.318;2023-03-01T00:41:30;2.20;64.50
78779;DHT22;68121;52.404;5.318;2023-03-01T00:43:56;2.20;64.40
78779;DHT22;68121;52.404;5.318;2023-03-01T00:46:25;2.20;64.40
78779;DHT22;68121;52.404;5.318;2023-03-01T00:48:52;2.20;64.30
78779;DHT22;68121;52.404;5.318;2023-03-01T00:51:24;2.10;64.30
78779;DHT22;68121;52.404;5.318;2023-03-01T00:53:55;2.10;64.30
78779;DHT22;68121;52.404;5.318;2023-03-01T00:56:23;2.10;64.40
78779;DHT22;68121;52.404;5.318;2023-03-01T00:58:49;2.10;64.30
78779;DHT22;68121;52.404;5.318;2023-03-01T01:01:21;2.10;64.30
78779;DHT22;68121;52.404;5.318;2023-03-01T01:04:14;2.00;64.20
78779;DHT22;68121;52.404;5.318;2023-03-01T01:06:43;1.90;64.30
78779;DHT22;68121;52.404;5.318;2023-03-01T01:09:13;1.90;64.30
78779;DHT22;68121;52.404;5.318;2023-03-01T01:11:44;1.90;64.20
78779;DHT22;68121;52.404;5.318;2023-03-01T01:14:10;1.80;64.20
78779;DHT22;68121;52.404;5.318;2023-03-01T01:16:36;1.80;64.30
78779;DHT22;68121;52.404;5.318;2023-03-01T01:19:02;1.80;64.20
78779;DHT22;68121;52.404;5.318;2023-03-01T01:21:29;1.80;64.20
78779;DHT22;68121;52.404;5.318;2023-03-01T01:23:55;1.70;64.20
78779;DHT22;68121;52.404;5.318;2023-03-01T01:26:27;1.70;64.20
78779;DHT22;68121;52.404;5.318;2023-03-01T01:28:53;1.70;64.20
78779;DHT22;68121;52.404;5.318;2023-03-01T01:31:20;1.70;64.20
78779;DHT22;68121;52.404;5.318;2023-03-01T01:33:49;1.60;64.20
78779;DHT22;68121;52.404;5.318;2023-03-01T01:36:16;1.60;64.30
78779;DHT22;68121;52.404;5.318;2023-03-01T01:38:42;1.60;64.30
78779;DHT22;68121;52.404;5.318;2023-03-01T01:41:09;1.50;64.30
78779;DHT22;68121;52.404;5.318;2023-03-01T01:43:43;1.50;64.30
78779;DHT22;68121;52.404;5.318;2023-03-01T01:46:31;1.40;64.30
78779;DHT22;68121;52.404;5.318;2023-03-01T01:51:47;1.40;64.30
78779;DHT22;68121;52.404;5.318;2023-03-01T01:54:30;1.40;64.30
78779;DHT22;68121;52.404;5.318;2023-03-01T01:57:03;1.30;64.20
78779;DHT22;68121;52.404;5.318;2023-03-01T01:59:32;1.20;64.20
78779;DHT22;68121;52.404;5.318;2023-03-01T02:02:02;1.10;64.20
78779;DHT22;68121;52.404;5.318;2023-03-01T02:04:30;1.10;64.30
78779;DHT22;68121;52.404;5.318;2023-03-01T02:07:18;1.10;64.20
78779;DHT22;68121;52.404;5.318;2023-03-01T02:09:50;1.10;64.30
78779;DHT22;68121;52.404;5.318;2023-03-01T02:12:20;1.00;64.20
78779;DHT22;68121;52.404;5.318;2023-03-01T02:14:47;1.00;64.20
78779;DHT22;68121;52.404;5.318;2023-03-01T02:17:15;1.00;64.20
78779;DHT22;68121;52.404;5.318;2023-03-01T02:22:37;1.00;64.20
78779;DHT22;68121;52.404;5.318;2023-03-01T02:28:05;1.00;64.20
78779;DHT22;68121;52.404;5.318;2023-03-01T02:30:35;0.90;64.20
78779;DHT22;68121;52.404;5.318;2023-03-01T02:33:03;0.90;64.20
78779;DHT22;68121;52.404;5.318;2023-03-01T02:35:35;0.90;64.20
78779;DHT22;68121;52.404;5.318;2023-03-01T02:38:05;0.90;64.20
78779;DHT22;68121;52.404;5.318;2023-03-01T02:40:33;0.80;64.10
78779;DHT22;68121;52.404;5.318;2023-03-01T02:43:04;0.80;64.10
78779;DHT22;68121;52.404;5.318;2023-03-01T02:45:31;0.80;64.20
78779;DHT22;68121;52.404;5.318;2023-03-01T02:47:57;0.80;64.20
78779;DHT22;68121;52.404;5.318;2023-03-01T02:53:21;0.60;64.20
78779;DHT22;68121;52.404;5.318;2023-03-01T02:55:49;0.70;64.20
78779;DHT22;68121;52.404;5.318;2023-03-01T02:58:15;0.60;64.10
78779;DHT22;68121;52.404;5.318;2023-03-01T03:00:42;0.60;64.20
78779;DHT22;68121;52.404;5.318;2023-03-01T03:03:14;0.60;64.20
78779;DHT22;68121;52.404;5.318;2023-03-01T03:05:40;0.60;64.10
78779;DHT22;68121;52.404;5.318;2023-03-01T03:08:06;0.60;64.10
78779;DHT22;68121;52.404;5.318;2023-03-01T03:10:36;0.60;64.10
78779;DHT22;68121;52.404;5.318;2023-03-01T03:13:05;0.60;64.10
78779;DHT22;68121;52.404;5.318;2023-03-01T03:15:33;0.60;64.10
78779;DHT22;68121;52.404;5.318;2023-03-01T03:18:03;0.50;64.10
78779;DHT22;68121;52.404;5.318;2023-03-01T03:20:30;0.50;64.10
78779;DHT22;68121;52.404;5.318;2023-03-01T03:22:57;0.40;64.00
78779;DHT22;68121;52.404;5.318;2023-03-01T03:25:25;0.40;64.00
78779;DHT22;68121;52.404;5.318;2023-03-01T03:27:52;0.40;64.00
78779;DHT22;68121;52.404;5.318;2023-03-01T03:30:25;0.40;64.00
78779;DHT22;68121;52.404;5.318;2023-03-01T03:32:51;0.30;64.00
78779;DHT22;68121;52.404;5.318;2023-03-01T03:35:25;0.30;64.00
78779;DHT22;68121;52.404;5.318;2023-03-01T03:37:51;0.30;64.00
78779;DHT22;68121;52.404;5.318;2023-03-01T03:40:34;0.30;64.10
78779;DHT22;68121;52.404;5.318;2023-03-01T03:43:06;0.20;64.00
78779;DHT22;68121;52.404;5.318;2023-03-01T03:45:33;0.20;64.00
78779;DHT22;68121;52.404;5.318;2023-03-01T03:48:00;0.20;64.10
78779;DHT22;68121;52.404;5.318;2023-03-01T03:50:27;0.20;64.10
78779;DHT22;68121;52.404;5.318;2023-03-01T03:52:53;0.30;64.20
78779;DHT22;68121;52.404;5.318;2023-03-01T03:55:19;0.20;64.20
78779;DHT22;68121;52.404;5.318;2023-03-01T03:57:47;0.20;64.20
78779;DHT22;68121;52.404;5.318;2023-03-01T04:00:21;0.20;64.20
78779;DHT22;68121;52.404;5.318;2023-03-01T04:02:50;0.20;64.30
78779;DHT22;68121;52.404;5.318;2023-03-01T04:05:18;0.20;64.30
78779;DHT22;68121;52.404;5.318;2023-03-01T04:07:45;0.20;64.20
78779;DHT22;68121;52.404;5.318;2023-03-01T04:10:14;0.00;64.20
78779;DHT22;68121;52.404;5.318;2023-03-01T04:12:41;0.00;64.30
78779;DHT22;68121;52.404;5.318;2023-03-01T04:15:10;0.00;64.30
78779;DHT22;68121;52.404;5.318;2023-03-01T04:17:40;0.00;64.30
78779;DHT22;68121;52.404;5.318;2023-03-01T04:20:12;0.00;64.30
78779;DHT22;68121;52.404;5.318;2023-03-01T04:22:40;0.00;64.30
78779;DHT22;68121;52.404;5.318;2023-03-01T04:25:06;0.00;64.30
78779;DHT22;68121;52.404;5.318;2023-03-01T04:27:34;0.00;64.30
78779;DHT22;68121;52.404;5.318;2023-03-01T04:30:00;0.00;64.40
78779;DHT22;68121;52.404;5.318;2023-03-01T04:32:26;0.00;64.40
78779;DHT22;68121;52.404;5.318;2023-03-01T04:34:52;0.00;64.40
78779;DHT22;68121;52.404;5.318;2023-03-01T04:37:18;0.00;64.40
78779;DHT22;68121;52.404;5.318;2023-03-01T04:39:44;0.00;64.40
78779;DHT22;68121;52.404;5.318;2023-03-01T04:42:14;0.00;64.40
78779;DHT22;68121;52.404;5.318;2023-03-01T04:44:41;-0.10;64.50
78779;DHT22;68121;52.404;5.318;2023-03-01T04:47:07;-0.10;64.50
78779;DHT22;68121;52.404;5.318;2023-03-01T04:49:33;-0.10;64.50
78779;DHT22;68121;52.404;5.318;2023-03-01T04:51:59;-0.10;64.50
78779;DHT22;68121;52.404;5.318;2023-03-01T04:54:28;-0.10;64.60
78779;DHT22;68121;52.404;5.318;2023-03-01T04:56:55;-0.20;64.60
78779;DHT22;68121;52.404;5.318;2023-03-01T04:59:21;-0.20;64.60
78779;DHT22;68121;52.404;5.318;2023-03-01T05:01:52;-0.20;64.60
78779;DHT22;68121;52.404;5.318;2023-03-01T05:04:22;-0.20;64.60
78779;DHT22;68121;52.404;5.318;2023-03-01T05:06:48;-0.30;64.50
78779;DHT22;68121;52.404;5.318;2023-03-01T05:09:14;-0.30;64.50
78779;DHT22;68121;52.404;5.318;2023-03-01T05:11:41;-0.30;64.50
78779;DHT22;68121;52.404;5.318;2023-03-01T05:14:08;-0.20;64.50
78779;DHT22;68121;52.404;5.318;2023-03-01T05:16:35;-0.20;64.50
78779;DHT22;68121;52.404;5.318;2023-03-01T05:19:05;-0.20;64.50
78779;DHT22;68121;52.404;5.318;2023-03-01T05:21:39;-0.10;64.40
78779;DHT22;68121;52.404;5.318;2023-03-01T05:24:26;-0.20;64.50
78779;DHT22;68121;52.404;5.318;2023-03-01T05:26:53;-0.20;64.50
78779;DHT22;68121;52.404;5.318;2023-03-01T05:29:23;-0.20;64.50
78779;DHT22;68121;52.404;5.318;2023-03-01T05:34:23;-0.20;64.60
78779;DHT22;68121;52.404;5.318;2023-03-01T05:36:49;-0.20;64.60
78779;DHT22;68121;52.404;5.318;2023-03-01T05:39:23;-0.30;64.70
78779;DHT22;68121;52.404;5.318;2023-03-01T05:41:53;-0.30;64.70
78779;DHT22;68121;52.404;5.318;2023-03-01T05:44:20;-0.30;64.70
78779;DHT22;68121;52.404;5.318;2023-03-01T05:46:46;-0.40;64.60
78779;DHT22;68121;52.404;5.318;2023-03-01T05:49:13;-0.40;64.60
78779;DHT22;68121;52.404;5.318;2023-03-01T05:51:40;-0.40;64.70
78779;DHT22;68121;52.404;5.318;2023-03-01T05:54:07;-0.50;64.60
78779;DHT22;68121;52.404;5.318;2023-03-01T05:56:34;-0.50;64.70
78779;DHT22;68121;52.404;5.318;2023-03-01T05:59:01;-0.50;64.60
78779;DHT22;68121;52.404;5.318;2023-03-01T06:01:27;-0.50;64.60
78779;DHT22;68121;52.404;5.318;2023-03-01T06:03:53;-0.60;64.60
78779;DHT22;68121;52.404;5.318;2023-03-01T06:06:19;-0.60;64.70
78779;DHT22;68121;52.404;5.318;2023-03-01T06:08:45;-0.60;64.70
78779;DHT22;68121;52.404;5.318;2023-03-01T06:11:11;-0.60;64.70
78779;DHT22;68121;52.404;5.318;2023-03-01T06:13:37;-0.60;64.70
78779;DHT22;68121;52.404;5.318;2023-03-01T06:16:07;-0.60;64.70
78779;DHT22;68121;52.404;5.318;2023-03-01T06:18:33;-0.60;64.70
78779;DHT22;68121;52.404;5.318;2023-03-01T06:21:00;-0.60;64.70
78779;DHT22;68121;52.404;5.318;2023-03-01T06:23:26;-0.70;64.80
78779;DHT22;68121;52.404;5.318;2023-03-01T06:25:52;-0.70;64.80
78779;DHT22;68121;52.404;5.318;2023-03-01T06:28:18;-0.70;65.00
78779;DHT22;68121;52.404;5.318;2023-03-01T06:30:44;-0.70;65.10
78779;DHT22;68121;52.404;5.318;2023-03-01T06:33:10;-0.70;65.20
78779;DHT22;68121;52.404;5.318;2023-03-01T06:35:36;-0.70;65.40
78779;DHT22;68121;52.404;5.318;2023-03-01T06:38:03;-0.70;65.60
78779;DHT22;68121;52.404;5.318;2023-03-01T06:40:30;-0.70;65.80
78779;DHT22;68121;52.404;5.318;2023-03-01T06:42:57;-0.70;66.10
78779;DHT22;68121;52.404;5.318;2023-03-01T06:45:24;-0.70;66.20
78779;DHT22;68121;52.404;5.318;2023-03-01T06:47:50;-0.70;66.30
78779;DHT22;68121;52.404;5.318;2023-03-01T06:50:17;-0.80;66.40
78779;DHT22;68121;52.404;5.318;2023-03-01T06:52:44;-0.80;66.60
78779;DHT22;68121;52.404;5.318;2023-03-01T06:55:11;-0.70;66.70
78779;DHT22;68121;52.404;5.318;2023-03-01T06:57:37;-0.70;66.70
78779;DHT22;68121;52.404;5.318;2023-03-01T07:00:04;-0.70;66.80
78779;DHT22;68121;52.404;5.318;2023-03-01T07:02:31;-0.60;66.90
78779;DHT22;68121;52.404;5.318;2023-03-01T07:04:57;-0.50;67.00
78779;DHT22;68121;52.404;5.318;2023-03-01T07:07:23;-0.40;66.80
78779;DHT22;68121;52.404;5.318;2023-03-01T07:09:50;-0.40;66.70
78779;DHT22;68121;52.404;5.318;2023-03-01T07:12:16;-0.40;66.80
78779;DHT22;68121;52.404;5.318;2023-03-01T07:14:44;-0.40;66.80
78779;DHT22;68121;52.404;5.318;2023-03-01T07:17:10;-0.50;66.90
78779;DHT22;68121;52.404;5.318;2023-03-01T07:19:36;-0.50;67.00
78779;DHT22;68121;52.404;5.318;2023-03-01T07:22:03;-0.50;67.00
78779;DHT22;68121;52.404;5.318;2023-03-01T07:24:30;-0.40;67.00
78779;DHT22;68121;52.404;5.318;2023-03-01T07:26:56;-0.40;67.00
78779;DHT22;68121;52.404;5.318;2023-03-01T07:29:22;-0.40;67.00
78779;DHT22;68121;52.404;5.318;2023-03-01T07:31:48;-0.40;67.10
78779;DHT22;68121;52.404;5.318;2023-03-01T07:34:14;-0.40;67.00
78779;DHT22;68121;52.404;5.318;2023-03-01T07:36:40;-0.40;66.90
78779;DHT22;68121;52.404;5.318;2023-03-01T07:39:10;-0.50;66.90
78779;DHT22;68121;52.404;5.318;2023-03-01T07:41:36;-0.50;66.80
78779;DHT22;68121;52.404;5.318;2023-03-01T07:44:03;-0.50;66.80
78779;DHT22;68121;52.404;5.318;2023-03-01T07:46:29;-0.50;66.90
78779;DHT22;68121;52.404;5.318;2023-03-01T07:48:55;-0.40;66.80
78779;DHT22;68121;52.404;5.318;2023-03-01T07:51:21;-0.30;66.70
78779;DHT22;68121;52.404;5.318;2023-03-01T07:53:47;-0.20;66.70
78779;DHT22;68121;52.404;5.318;2023-03-01T07:56:15;-0.10;66.60
78779;DHT22;68121;52.404;5.318;2023-03-01T07:58:43;0.00;66.60
78779;DHT22;68121;52.404;5.318;2023-03-01T08:01:13;0.20;66.50
78779;DHT22;68121;52.404;5.318;2023-03-01T08:03:40;0.40;66.40
78779;DHT22;68121;52.404;5.318;2023-03-01T08:06:07;0.70;66.20
78779;DHT22;68121;52.404;5.318;2023-03-01T08:08:34;1.00;65.80
78779;DHT22;68121;52.404;5.318;2023-03-01T08:11:03;1.20;65.60
78779;DHT22;68121;52.404;5.318;2023-03-01T08:13:30;1.60;65.30
78779;DHT22;68121;52.404;5.318;2023-03-01T08:16:23;1.90;65.00
78779;DHT22;68121;52.404;5.318;2023-03-01T08:18:49;2.30;64.80
78779;DHT22;68121;52.404;5.318;2023-03-01T08:21:16;2.60;64.50
78779;DHT22;68121;52.404;5.318;2023-03-01T08:23:43;3.00;64.20
78779;DHT22;68121;52.404;5.318;2023-03-01T08:26:10;3.30;63.90
78779;DHT22;68121;52.404;5.318;2023-03-01T08:28:38;3.50;63.70
78779;DHT22;68121;52.404;5.318;2023-03-01T08:31:35;3.90;63.40
78779;DHT22;68121;52.404;5.318;2023-03-01T08:34:03;4.30;63.20
78779;DHT22;68121;52.404;5.318;2023-03-01T08:36:32;4.60;62.90
78779;DHT22;68121;52.404;5.318;2023-03-01T08:38:59;4.90;62.80
78779;DHT22;68121;52.404;5.318;2023-03-01T08:41:25;5.30;62.50
78779;DHT22;68121;52.404;5.318;2023-03-01T08:43:51;5.70;62.50
78779;DHT22;68121;52.404;5.318;2023-03-01T08:46:18;6.10;62.10
78779;DHT22;68121;52.404;5.318;2023-03-01T08:48:44;6.30;61.90
78779;DHT22;68121;52.404;5.318;2023-03-01T08:51:15;6.40;61.70
78779;DHT22;68121;52.404;5.318;2023-03-01T08:53:42;6.50;61.60
78779;DHT22;68121;52.404;5.318;2023-03-01T08:56:09;6.50;61.50
78779;DHT22;68121;52.404;5.318;2023-03-01T08:58:36;6.60;61.50
78779;DHT22;68121;52.404;5.318;2023-03-01T09:01:10;6.80;61.30
78779;DHT22;68121;52.404;5.318;2023-03-01T09:03:37;6.90;61.10
78779;DHT22;68121;52.404;5.318;2023-03-01T09:06:04;7.00;60.90
78779;DHT22;68121;52.404;5.318;2023-03-01T09:08:34;7.20;60.60
78779;DHT22;68121;52.404;5.318;2023-03-01T09:11:04;7.20;60.30
78779;DHT22;68121;52.404;5.318;2023-03-01T09:13:31;7.40;60.10
78779;DHT22;68121;52.404;5.318;2023-03-01T09:15:59;7.50;59.80
78779;DHT22;68121;52.404;5.318;2023-03-01T09:18:26;7.50;59.60
78779;DHT22;68121;52.404;5.318;2023-03-01T09:20:52;7.50;59.50
78779;DHT22;68121;52.404;5.318;2023-03-01T09:23:21;7.60;59.30
78779;DHT22;68121;52.404;5.318;2023-03-01T09:25:47;7.70;59.10
78779;DHT22;68121;52.404;5.318;2023-03-01T09:28:13;7.70;59.00
78779;DHT22;68121;52.404;5.318;2023-03-01T09:30:39;7.70;59.00
78779;DHT22;68121;52.404;5.318;2023-03-01T09:33:05;7.80;58.90
78779;DHT22;68121;52.404;5.318;2023-03-01T09:35:31;8.00;58.70
78779;DHT22;68121;52.404;5.318;2023-03-01T09:37:57;8.10;58.50
78779;DHT22;68121;52.404;5.318;2023-03-01T09:40:26;8.20;58.00
78779;DHT22;68121;52.404;5.318;2023-03-01T09:43:07;8.20;57.90
78779;DHT22;68121;52.404;5.318;2023-03-01T09:45:35;8.30;57.90
78779;DHT22;68121;52.404;5.318;2023-03-01T09:48:04;8.30;57.90
78779;DHT22;68121;52.404;5.318;2023-03-01T09:50:35;8.40;57.70
78779;DHT22;68121;52.404;5.318;2023-03-01T09:53:13;8.30;57.20
78779;DHT22;68121;52.404;5.318;2023-03-01T10:00:56;8.20;57.30
78779;DHT22;68121;52.404;5.318;2023-03-01T10:03:41;8.30;57.10
78779;DHT22;68121;52.404;5.318;2023-03-01T10:06:15;8.20;57.20
78779;DHT22;68121;52.404;5.318;2023-03-01T10:09:00;8.20;57.00
78779;DHT22;68121;52.404;5.318;2023-03-01T10:11:33;8.10;57.00
78779;DHT22;68121;52.404;5.318;2023-03-01T10:19:43;8.20;56.90
78779;DHT22;68121;52.404;5.318;2023-03-01T10:22:20;8.20;56.70
78779;DHT22;68121;52.404;5.318;2023-03-01T10:24:51;8.30;56.70
78779;DHT22;68121;52.404;5.318;2023-03-01T10:27:43;8.40;56.50
78779;DHT22;68121;52.404;5.318;2023-03-01T10:30:14;8.60;56.20
78779;DHT22;68121;52.404;5.318;2023-03-01T10:32:43;8.90;55.80
78779;DHT22;68121;52.404;5.318;2023-03-01T10:35:25;8.90;55.30
78779;DHT22;68121;52.404;5.318;2023-03-01T10:38:07;9.00;55.10
78779;DHT22;68121;52.404;5.318;2023-03-01T10:40:35;9.10;54.80
78779;DHT22;68121;52.404;5.318;2023-03-01T10:43:04;9.20;54.70
78779;DHT22;68121;52.404;5.318;2023-03-01T10:45:37;9.40;54.40
78779;DHT22;68121;52.404;5.318;2023-03-01T10:48:25;9.40;54.10
78779;DHT22;68121;52.404;5.318;2023-03-01T10:53:35;9.20;53.40
78779;DHT22;68121;52.404;5.318;2023-03-01T10:56:09;9.20;53.30
78779;DHT22;68121;52.404;5.318;2023-03-01T10:58:37;9.40;53.10
78779;DHT22;68121;52.404;5.318;2023-03-01T11:01:24;9.60;52.80
78779;DHT22;68121;52.404;5.318;2023-03-01T11:04:12;9.80;52.50
78779;DHT22;68121;52.404;5.318;2023-03-01T11:06:40;10.00;52.00
78779;DHT22;68121;52.404;5.318;2023-03-01T11:09:35;10.00;52.00
78779;DHT22;68121;52.404;5.318;2023-03-01T11:12:13;10.00;51.30
78779;DHT22;68121;52.404;5.318;2023-03-01T11:14:50;10.00;51.70
78779;DHT22;68121;52.404;5.318;2023-03-01T11:17:28;10.10;51.60
78779;DHT22;68121;52.404;5.318;2023-03-01T11:23:05;10.20;51.30
78779;DHT22;68121;52.404;5.318;2023-03-01T11:25:37;10.10;51.30
78779;DHT22;68121;52.404;5.318;2023-03-01T11:28:05;10.10;51.10
78779;DHT22;68121;52.404;5.318;2023-03-01T11:30:40;10.10;50.70
78779;DHT22;68121;52.404;5.318;2023-03-01T11:36:19;10.30;50.50
78779;DHT22;68121;52.404;5.318;2023-03-01T11:38:48;10.40;50.30
78779;DHT22;68121;52.404;5.318;2023-03-01T11:41:17;10.50;50.10
78779;DHT22;68121;52.404;5.318;2023-03-01T11:44:01;10.50;50.00
78779;DHT22;68121;52.404;5.318;2023-03-01T11:54:35;10.40;48.80
78779;DHT22;68121;52.404;5.318;2023-03-01T11:59:58;10.40;49.10
78779;DHT22;68121;52.404;5.318;2023-03-01T12:02:48;10.50;48.90
78779;DHT22;68121;52.404;5.318;2023-03-01T12:08:42;10.60;48.70
78779;DHT22;68121;52.404;5.318;2023-03-01T12:19:59;11.00;48.70
78779;DHT22;68121;52.404;5.318;2023-03-01T12:22:32;11.10;48.70
78779;DHT22;68121;52.404;5.318;2023-03-01T12:38:10;11.40;48.60
78779;DHT22;68121;52.404;5.318;2023-03-01T12:43:31;11.20;48.50
78779;DHT22;68121;52.404;5.318;2023-03-01T12:49:17;11.30;48.50
78779;DHT22;68121;52.404;5.318;2023-03-01T12:52:11;11.40;48.60
78779;DHT22;68121;52.404;5.318;2023-03-01T12:54:38;11.50;48.40
78779;DHT22;68121;52.404;5.318;2023-03-01T12:57:29;11.50;48.20
78779;DHT22;68121;52.404;5.318;2023-03-01T13:00:31;11.60;47.80
78779;DHT22;68121;52.404;5.318;2023-03-01T13:06:15;11.70;47.60
78779;DHT22;68121;52.404;5.318;2023-03-01T13:09:05;11.70;47.60
78779;DHT22;68121;52.404;5.318;2023-03-01T13:11:33;11.70;47.30
78779;DHT22;68121;52.404;5.318;2023-03-01T13:16:52;11.60;47.20
78779;DHT22;68121;52.404;5.318;2023-03-01T13:19:21;11.50;47.30
78779;DHT22;68121;52.404;5.318;2023-03-01T13:21:50;11.30;47.20
78779;DHT22;68121;52.404;5.318;2023-03-01T13:24:37;11.30;47.30
78779;DHT22;68121;52.404;5.318;2023-03-01T13:29:53;11.50;47.00
78779;DHT22;68121;52.404;5.318;2023-03-01T13:32:24;11.50;46.90
78779;DHT22;68121;52.404;5.318;2023-03-01T13:34:59;11.50;46.90
78779;DHT22;68121;52.404;5.318;2023-03-01T13:37:27;11.40;46.80
78779;DHT22;68121;52.404;5.318;2023-03-01T13:39:57;11.40;46.40
78779;DHT22;68121;52.404;5.318;2023-03-01T13:45:00;11.30;46.70
78779;DHT22;68121;52.404;5.318;2023-03-01T13:47:27;11.40;46.70
78779;DHT22;68121;52.404;5.318;2023-03-01T13:49:58;11.40;46.60
78779;DHT22;68121;52.404;5.318;2023-03-01T13:52:50;11.40;46.70
78779;DHT22;68121;52.404;5.318;2023-03-01T13:57:53;11.40;46.70
78779;DHT22;68121;52.404;5.318;2023-03-01T14:00:37;11.50;46.70
78779;DHT22;68121;52.404;5.318;2023-03-01T14:03:14;11.60;46.70
78779;DHT22;68121;52.404;5.318;2023-03-01T14:05:44;11.70;46.60
78779;DHT22;68121;52.404;5.318;2023-03-01T14:08:23;11.70;46.40
78779;DHT22;68121;52.404;5.318;2023-03-01T14:17:08;11.20;46.60
78779;DHT22;68121;52.404;5.318;2023-03-01T14:19:37;11.10;46.60
78779;DHT22;68121;52.404;5.318;2023-03-01T14:22:19;11.00;46.80
78779;DHT22;68121;52.404;5.318;2023-03-01T14:24:59;11.00;47.10
78779;DHT22;68121;52.404;5.318;2023-03-01T14:27:32;11.10;46.70
78779;DHT22;68121;52.404;5.318;2023-03-01T14:30:01;11.10;46.70
78779;DHT22;68121;52.404;5.318;2023-03-01T14:32:31;11.10;46.70
78779;DHT22;68121;52.404;5.318;2023-03-01T14:34:59;11.20;46.80
78779;DHT22;68121;52.404;5.318;2023-03-01T14:37:29;11.20;46.50
78779;DHT22;68121;52.404;5.318;2023-03-01T14:39:56;11.10;46.40
78779;DHT22;68121;52.404;5.318;2023-03-01T14:42:24;11.10;46.40
78779;DHT22;68121;52.404;5.318;2023-03-01T14:44:53;11.10;46.50
78779;DHT22;68121;52.404;5.318;2023-03-01T14:49:58;11.10;46.50
78779;DHT22;68121;52.404;5.318;2023-03-01T14:52:39;11.10;46.60
78779;DHT22;68121;52.404;5.318;2023-03-01T14:55:46;11.10;46.60
78779;DHT22;68121;52.404;5.318;2023-03-01T14:58:13;11.00;46.60
78779;DHT22;68121;52.404;5.318;2023-03-01T15:00:51;10.80;46.90
78779;DHT22;68121;52.404;5.318;2023-03-01T15:03:41;10.70;47.00
78779;DHT22;68121;52.404;5.318;2023-03-01T15:06:10;10.60;46.90
78779;DHT22;68121;52.404;5.318;2023-03-01T15:08:41;10.70;47.00
78779;DHT22;68121;52.404;5.318;2023-03-01T15:11:23;10.60;46.90
78779;DHT22;68121;52.404;5.318;2023-03-01T15:13:52;10.60;46.80
78779;DHT22;68121;52.404;5.318;2023-03-01T15:16:23;10.60;46.90
78779;DHT22;68121;52.404;5.318;2023-03-01T15:18:53;10.50;46.60
78779;DHT22;68121;52.404;5.318;2023-03-01T15:21:23;10.30;46.60
78779;DHT22;68121;52.404;5.318;2023-03-01T15:23:53;10.20;46.60
78779;DHT22;68121;52.404;5.318;2023-03-01T15:26:41;10.00;46.40
78779;DHT22;68121;52.404;5.318;2023-03-01T15:29:16;10.00;46.10
78779;DHT22;68121;52.404;5.318;2023-03-01T15:31:43;9.80;46.30
78779;DHT22;68121;52.404;5.318;2023-03-01T15:34:32;9.70;46.50
78779;DHT22;68121;52.404;5.318;2023-03-01T15:37:01;9.70;46.50
78779;DHT22;68121;52.404;5.318;2023-03-01T15:41:57;9.50;46.40
78779;DHT22;68121;52.404;5.318;2023-03-01T15:44:32;9.40;46.40
78779;DHT22;68121;52.404;5.318;2023-03-01T15:46:59;9.40;46.50
78779;DHT22;68121;52.404;5.318;2023-03-01T15:51:57;9.20;46.60
78779;DHT22;68121;52.404;5.318;2023-03-01T15:54:25;9.20;46.70
78779;DHT22;68121;52.404;5.318;2023-03-01T15:56:51;9.20;46.90
78779;DHT22;68121;52.404;5.318;2023-03-01T15:59:18;9.20;47.00
78779;DHT22;68121;52.404;5.318;2023-03-01T16:01:44;9.20;47.10
78779;DHT22;68121;52.404;5.318;2023-03-01T16:04:12;9.20;47.10
78779;DHT22;68121;52.404;5.318;2023-03-01T16:06:42;9.20;47.20
78779;DHT22;68121;52.404;5.318;2023-03-01T16:09:08;9.20;47.30
78779;DHT22;68121;52.404;5.318;2023-03-01T16:11:35;9.10;47.50
78779;DHT22;68121;52.404;5.318;2023-03-01T16:14:03;9.10;47.60
78779;DHT22;68121;52.404;5.318;2023-03-01T16:16:29;9.00;47.60
78779;DHT22;68121;52.404;5.318;2023-03-01T16:18:55;9.00;47.60
78779;DHT22;68121;52.404;5.318;2023-03-01T16:21:23;8.90;47.70
78779;DHT22;68121;52.404;5.318;2023-03-01T16:23:50;8.80;47.70
78779;DHT22;68121;52.404;5.318;2023-03-01T16:26:18;8.80;47.80
78779;DHT22;68121;52.404;5.318;2023-03-01T16:28:45;8.80;47.90
78779;DHT22;68121;52.404;5.318;2023-03-01T16:31:12;8.80;48.00
78779;DHT22;68121;52.404;5.318;2023-03-01T16:33:42;8.70;48.00
78779;DHT22;68121;52.404;5.318;2023-03-01T16:36:17;8.70;48.20
78779;DHT22;68121;52.404;5.318;2023-03-01T16:38:44;8.70;48.30
78779;DHT22;68121;52.404;5.318;2023-03-01T16:41:15;8.80;48.30
78779;DHT22;68121;52.404;5.318;2023-03-01T16:43:42;8.80;48.40
78779;DHT22;68121;52.404;5.318;2023-03-01T16:46:13;8.70;48.40
78779;DHT22;68121;52.404;5.318;2023-03-01T16:48:40;8.60;48.60
78779;DHT22;68121;52.404;5.318;2023-03-01T16:51:06;8.60;48.70
78779;DHT22;68121;52.404;5.318;2023-03-01T16:53:36;8.60;48.80
78779;DHT22;68121;52.404;5.318;2023-03-01T16:56:06;8.60;48.80
78779;DHT22;68121;52.404;5.318;2023-03-01T16:58:34;8.50;48.90
78779;DHT22;68121;52.404;5.318;2023-03-01T17:01:09;8.50;49.00
78779;DHT22;68121;52.404;5.318;2023-03-01T17:03:37;8.40;49.10
78779;DHT22;68121;52.404;5.318;2023-03-01T17:06:09;8.30;49.10
78779;DHT22;68121;52.404;5.318;2023-03-01T17:08:36;8.30;49.20
78779;DHT22;68121;52.404;5.318;2023-03-01T17:11:11;8.20;49.20
78779;DHT22;68121;52.404;5.318;2023-03-01T17:13:38;8.20;49.40
78779;DHT22;68121;52.404;5.318;2023-03-01T17:16:09;8.10;49.40
78779;DHT22;68121;52.404;5.318;2023-03-01T17:18:36;8.10;49.50
78779;DHT22;68121;52.404;5.318;2023-03-01T17:21:05;8.10;49.60
78779;DHT22;68121;52.404;5.318;2023-03-01T17:23:32;8.00;49.60
78779;DHT22;68121;52.404;5.318;2023-03-01T17:25:58;8.00;49.70
78779;DHT22;68121;52.404;5.318;2023-03-01T17:28:26;8.00;49.70
78779;DHT22;68121;52.404;5.318;2023-03-01T17:30:53;7.90;49.80
78779;DHT22;68121;52.404;5.318;2023-03-01T17:33:20;7.80;49.90
78779;DHT22;68121;52.404;5.318;2023-03-01T17:35:47;7.80;50.00
78779;DHT22;68121;52.404;5.318;2023-03-01T17:38:14;7.70;50.10
78779;DHT22;68121;52.404;5.318;2023-03-01T17:40:41;7.60;50.30
78779;DHT22;68121;52.404;5.318;2023-03-01T17:43:08;7.50;50.40